sensor_id;sensor_type;location;lat;lon;timestamp;temperature;humidity
15341;DHT22;7770;52.158;5.372;2023-05-10T00:02:28;12.60;99.90
15341;DHT22;7770;52.158;5.372;2023-05-10T00:05:14;12.60;99.90
15341;DHT22;7770;52.158;5.372;2023-05-10T00:08:01;12.60;99.90
15341;DHT22;7770;52.158;5.372;2023-05-10T00:10:47;12.60;99.90
15341;DHT22;7770;52.158;5.372;2023-05-10T00:13:33;12.60;99.90
15341;DHT22;7770;52.158;5.372;2023-05-10T00:16:19;12.60;99.90
15341;DHT22;7770;52.158;5.372;2023-05-10T00:19:05;12.60;99.90
15341;DHT22;7770;52.158;5.372;2023-05-10T00:21:51;12.70;99.90
15341;DHT22;7770;52.158;5.372;2023-05-10T00:24:37;12.70;99.90
15341;DHT22;7770;52.158;5.372;2023-05-10T00:27:23;12.70;99.90
15341;DHT22;7770;52.158;5.372;2023-05-10T00:30:09;12.70;99.90
15341;DHT22;7770;52.158;5.372;2023-05-10T00:32:55;12.70;99.90
15341;DHT22;7770;52.158;5.372;2023-05-10T00:35:41;12.70;99.90
15341;DHT22;7770;52.158;5.372;2023-05-10T00:38:27;12.70;99.90
15341;DHT22;7770;52.158;5.372;2023-05-10T00:41:13;12.70;99.90
15341;DHT22;7770;52.158;5.372;2023-05-10T00:43:59;12.70;99.90
15341;DHT22;7770;52.158;5.372;2023-05-10T00:46:47;12.70;99.90
15341;DHT22;7770;52.158;5.372;2023-05-10T00:49:34;12.70;99.90
15341;DHT22;7770;52.158;5.372;2023-05-10T00:52:21;12.60;99.90
15341;DHT22;7770;52.158;5.372;2023-05-10T00:55:09;12.70;99.90
15341;DHT22;7770;52.158;5.372;2023-05-10T00:57:57;12.70;99.90
15341;DHT22;7770;52.158;5.372;2023-05-10T01:00:46;12.70;99.90
15341;DHT22;7770;52.158;5.372;2023-05-10T01:03:33;12.70;99.90
15341;DHT22;7770;52.158;5.372;2023-05-10T01:06:19;12.80;99.90
15341;DHT22;7770;52.158;5.372;2023-05-10T01:09:05;12.80;99.90
15341;DHT22;7770;52.158;5.372;2023-05-10T01:11:53;12.80;99.90
15341;DHT22;7770;52.158;5.372;2023-05-10T01:14:39;12.80;99.90
15341;DHT22;7770;52.158;5.372;2023-05-10T01:17:26;12.80;99.90
15341;DHT22;7770;52.158;5.372;2023-05-10T01:20:12;12.90;99.90
15341;DHT22;7770;52.158;5.372;2023-05-10T01:23:26;12.90;99.90
15341;DHT22;7770;52.158;5.372;2023-05-10T01:33:36;12.90;99.90
15341;DHT22;7770;52.158;5.372;2023-05-10T01:36:51;12.80;99.90
15341;DHT22;7770;52.158;5.372;2023-05-10T01:40:17;12.80;99.90
15341;DHT22;7770;52.158;5.372;2023-05-10T01:43:26;12.70;99.90
15341;DHT22;7770;52.158;5.372;2023-05-10T01:46:17;12.70;99.90
15341;DHT22;7770;52.158;5.372;2023-05-10T01:49:12;12.70;99.90
15341;DHT22;7770;52.158;5.372;2023-05-10T01:52:08;12.80;99.90
15341;DHT22;7770;52.158;5.372;2023-05-10T01:55:01;12.80;99.90
15341;DHT22;7770;52.158;5.372;2023-05-10T01:57:52;12.80;99.90
15341;DHT22;7770;52.158;5.372;2023-05-10T02:00:55;12.80;99.90
15341;DHT22;7770;52.158;5.372;2023-05-10T02:03:43;12.80;99.90
15341;DHT22;7770;52.158;5.372;2023-05-10T02:06:30;12.80;99.90
15341;DHT22;7770;52.158;5.372;2023-05-10T02:09:18;12.80;99.90
15341;DHT22;7770;52.158;5.372;2023-05-10T02:12:06;12.70;99.90
15341;DHT22;7770;52.158;5.372;2023-05-10T02:14:54;12.70;99.90
15341;DHT22;7770;52.158;5.372;2023-05-10T02:17:42;12.70;99.90
15341;DHT22;7770;52.158;5.372;2023-05-10T02:20:29;12.70;99.90
15341;DHT22;7770;52.158;5.372;2023-05-10T02:23:17;12.60;99.90
15341;DHT22;7770;52.158;5.372;2023-05-10T02:26:05;12.50;99.90
15341;DHT22;7770;52.158;5.372;2023-05-10T02:28:53;12.50;99.90
15341;DHT22;7770;52.158;5.372;2023-05-10T02:31:40;12.50;99.90
15341;DHT22;7770;52.158;5.372;2023-05-10T02:34:29;12.50;99.90
15341;DHT22;7770;52.158;5.372;2023-05-10T02:37:18;12.60;99.90
15341;DHT22;7770;52.158;5.372;2023-05-10T02:40:06;12.60;99.90
15341;DHT22;7770;52.158;5.372;2023-05-10T02:42:55;12.60;99.90
15341;DHT22;7770;52.158;5.372;2023-05-10T02:45:42;12.70;99.90
15341;DHT22;7770;52.158;5.372;2023-05-10T02:48:29;12.70;99.90
15341;DHT22;7770;52.158;5.372;2023-05-10T02:51:16;12.70;99.90
15341;DHT22;7770;52.158;5.372;2023-05-10T02:54:11;12.70;99.90
15341;DHT22;7770;52.158;5.372;2023-05-10T02:57:01;12.70;99.90
15341;DHT22;7770;52.158;5.372;2023-05-10T02:59:50;12.70;99.90
15341;DHT22;7770;52.158;5.372;2023-05-10T03:02:36;12.60;99.90
15341;DHT22;7770;52.158;5.372;2023-05-10T03:05:22;12.60;99.90
15341;DHT22;7770;52.158;5.372;2023-05-10T03:08:09;12.60;99.90
15341;DHT22;7770;52.158;5.372;2023-05-10T03:17:19;12.60;99.90
15341;DHT22;7770;52.158;5.372;2023-05-10T03:20:11;12.60;99.90
15341;DHT22;7770;52.158;5.372;2023-05-10T03:23:11;12.60;99.90
15341;DHT22;7770;52.158;5.372;2023-05-10T03:25:59;12.60;99.90
15341;DHT22;7770;52.158;5.372;2023-05-10T03:28:47;12.60;99.90
15341;DHT22;7770;52.158;5.372;2023-05-10T03:31:34;12.50;99.90
15341;DHT22;7770;52.158;5.372;2023-05-10T03:34:24;12.50;99.90
15341;DHT22;7770;52.158;5.372;2023-05-10T03:37:10;12.50;99.90
15341;DHT22;7770;52.158;5.372;2023-05-10T03:39:56;12.50;99.90
15341;DHT22;7770;52.158;5.372;2023-05-10T03:42:42;12.50;99.90
15341;DHT22;7770;52.158;5.372;2023-05-10T03:45:28;12.50;99.90
15341;DHT22;7770;52.158;5.372;2023-05-10T03:48:14;12.60;99.90
15341;DHT22;7770;52.158;5.372;2023-05-10T03:51:00;12.50;99.90
15341;DHT22;7770;52.158;5.372;2023-05-10T03:53:46;12.60;99.90
15341;DHT22;7770;52.158;5.372;2023-05-10T03:56:32;12.50;99.90
15341;DHT22;7770;52.158;5.372;2023-05-10T03:59:18;12.50;99.90
15341;DHT22;7770;52.158;5.372;2023-05-10T04:02:04;12.60;99.90
15341;DHT22;7770;52.158;5.372;2023-05-10T04:04:50;12.50;99.90
15341;DHT22;7770;52.158;5.372;2023-05-10T04:07:36;12.50;99.90
15341;DHT22;7770;52.158;5.372;2023-05-10T04:10:22;12.60;99.90
15341;DHT22;7770;52.158;5.372;2023-05-10T04:13:08;12.60;99.90
15341;DHT22;7770;52.158;5.372;2023-05-10T04:15:54;12.50;99.90
15341;DHT22;7770;52.158;5.372;2023-05-10T04:18:40;12.60;99.90
15341;DHT22;7770;52.158;5.372;2023-05-10T04:21:26;12.60;99.90
15341;DHT22;7770;52.158;5.372;2023-05-10T04:24:12;12.60;99.90
15341;DHT22;7770;52.158;5.372;2023-05-10T04:26:58;12.60;99.90
15341;DHT22;7770;52.158;5.372;2023-05-10T04:29:44;12.60;99.90
15341;DHT22;7770;52.158;5.372;2023-05-10T04:32:30;12.60;99.90
15341;DHT22;7770;52.158;5.372;2023-05-10T04:35:17;12.60;99.90
15341;DHT22;7770;52.158;5.372;2023-05-10T04:38:03;12.60;99.90
15341;DHT22;7770;52.158;5.372;2023-05-10T04:40:49;12.60;99.90
15341;DHT22;7770;52.158;5.372;2023-05-10T04:43:35;12.60;99.90
15341;DHT22;7770;52.158;5.372;2023-05-10T04:46:21;12.70;99.90
15341;DHT22;7770;52.158;5.372;2023-05-10T04:49:07;12.70;99.90
15341;DHT22;7770;52.158;5.372;2023-05-10T04:51:53;12.70;99.90
15341;DHT22;7770;52.158;5.372;2023-05-10T04:54:39;12.70;99.90
15341;DHT22;7770;52.158;5.372;2023-05-10T04:57:26;12.70;99.90
15341;DHT22;7770;52.158;5.372;2023-05-10T05:00:12;12.80;99.90
15341;DHT22;7770;52.158;5.372;2023-05-10T05:02:58;12.80;99.90
15341;DHT22;7770;52.158;5.372;2023-05-10T05:05:44;12.90;99.90
15341;DHT22;7770;52.158;5.372;2023-05-10T05:08:30;12.90;99.90
15341;DHT22;7770;52.158;5.372;2023-05-10T05:11:17;12.90;99.90
15341;DHT22;7770;52.158;5.372;2023-05-10T05:14:03;12.90;99.90
15341;DHT22;7770;52.158;5.372;2023-05-10T05:16:49;12.80;99.90
15341;DHT22;7770;52.158;5.372;2023-05-10T05:19:35;12.80;99.90
15341;DHT22;7770;52.158;5.372;2023-05-10T05:22:21;12.80;99.90
15341;DHT22;7770;52.158;5.372;2023-05-10T05:25:13;12.90;99.90
15341;DHT22;7770;52.158;5.372;2023-05-10T05:27:59;12.90;99.90
15341;DHT22;7770;52.158;5.372;2023-05-10T05:30:45;12.90;99.90
15341;DHT22;7770;52.158;5.372;2023-05-10T05:33:31;12.90;99.90
15341;DHT22;7770;52.158;5.372;2023-05-10T05:36:17;13.00;99.90
15341;DHT22;7770;52.158;5.372;2023-05-10T05:39:03;13.00;99.90
15341;DHT22;7770;52.158;5.372;2023-05-10T05:41:49;13.00;99.90
15341;DHT22;7770;52.158;5.372;2023-05-10T05:44:35;13.00;99.90
15341;DHT22;7770;52.158;5.372;2023-05-10T05:47:21;13.00;99.90
15341;DHT22;7770;52.158;5.372;2023-05-10T05:50:07;12.90;99.90
15341;DHT22;7770;52.158;5.372;2023-05-10T05:52:54;12.90;99.90
15341;DHT22;7770;52.158;5.372;2023-05-10T05:55:40;12.80;99.90
15341;DHT22;7770;52.158;5.372;2023-05-10T05:58:36;12.80;99.90
15341;DHT22;7770;52.158;5.372;2023-05-10T06:01:22;12.90;99.90
15341;DHT22;7770;52.158;5.372;2023-05-10T06:04:08;12.80;99.90
15341;DHT22;7770;52.158;5.372;2023-05-10T06:06:54;12.80;99.90
15341;DHT22;7770;52.158;5.372;2023-05-10T06:09:40;12.80;99.90
15341;DHT22;7770;52.158;5.372;2023-05-10T06:12:26;12.80;99.90
15341;DHT22;7770;52.158;5.372;2023-05-10T06:15:12;12.80;99.90
15341;DHT22;7770;52.158;5.372;2023-05-10T06:17:58;12.90;99.90
15341;DHT22;7770;52.158;5.372;2023-05-10T06:20:44;12.80;99.90
15341;DHT22;7770;52.158;5.372;2023-05-10T06:23:30;12.90;99.90
15341;DHT22;7770;52.158;5.372;2023-05-10T06:26:16;12.90;99.90
15341;DHT22;7770;52.158;5.372;2023-05-10T06:29:02;12.90;99.90
15341;DHT22;7770;52.158;5.372;2023-05-10T06:31:48;13.00;99.90
15341;DHT22;7770;52.158;5.372;2023-05-10T06:34:34;12.90;99.90
15341;DHT22;7770;52.158;5.372;2023-05-10T06:37:20;13.00;99.90
15341;DHT22;7770;52.158;5.372;2023-05-10T06:40:07;13.10;99.90
15341;DHT22;7770;52.158;5.372;2023-05-10T06:42:53;13.10;99.90
15341;DHT22;7770;52.158;5.372;2023-05-10T06:45:39;13.20;99.90
15341;DHT22;7770;52.158;5.372;2023-05-10T06:48:26;13.30;99.90
15341;DHT22;7770;52.158;5.372;2023-05-10T06:51:12;13.50;99.90
15341;DHT22;7770;52.158;5.372;2023-05-10T06:53:58;13.50;99.90
15341;DHT22;7770;52.158;5.372;2023-05-10T06:56:44;13.60;99.90
15341;DHT22;7770;52.158;5.372;2023-05-10T06:59:30;13.60;99.90
15341;DHT22;7770;52.158;5.372;2023-05-10T07:02:16;13.60;99.90
15341;DHT22;7770;52.158;5.372;2023-05-10T07:05:02;13.50;99.90
15341;DHT22;7770;52.158;5.372;2023-05-10T07:07:49;13.50;99.90
15341;DHT22;7770;52.158;5.372;2023-05-10T07:10:35;13.50;99.90
15341;DHT22;7770;52.158;5.372;2023-05-10T07:13:21;13.50;99.90
15341;DHT22;7770;52.158;5.372;2023-05-10T07:16:07;13.50;99.90
15341;DHT22;7770;52.158;5.372;2023-05-10T07:18:53;13.40;99.90
15341;DHT22;7770;52.158;5.372;2023-05-10T07:21:39;13.50;99.90
15341;DHT22;7770;52.158;5.372;2023-05-10T07:24:28;13.50;99.90
15341;DHT22;7770;52.158;5.372;2023-05-10T07:27:14;13.70;99.90
15341;DHT22;7770;52.158;5.372;2023-05-10T07:30:00;13.80;99.90
15341;DHT22;7770;52.158;5.372;2023-05-10T07:32:47;13.90;99.90
15341;DHT22;7770;52.158;5.372;2023-05-10T07:35:33;13.90;99.90
15341;DHT22;7770;52.158;5.372;2023-05-10T07:38:19;14.00;99.90
15341;DHT22;7770;52.158;5.372;2023-05-10T07:41:05;14.20;99.90
15341;DHT22;7770;52.158;5.372;2023-05-10T07:43:51;14.40;99.90
15341;DHT22;7770;52.158;5.372;2023-05-10T07:46:37;14.60;99.90
15341;DHT22;7770;52.158;5.372;2023-05-10T07:49:23;14.60;99.90
15341;DHT22;7770;52.158;5.372;2023-05-10T07:52:11;14.70;99.90
15341;DHT22;7770;52.158;5.372;2023-05-10T07:54:57;14.70;99.90
15341;DHT22;7770;52.158;5.372;2023-05-10T07:57:43;14.50;99.90
15341;DHT22;7770;52.158;5.372;2023-05-10T08:00:29;14.50;99.90
15341;DHT22;7770;52.158;5.372;2023-05-10T08:03:15;14.40;99.90
15341;DHT22;7770;52.158;5.372;2023-05-10T08:06:01;14.30;99.90
15341;DHT22;7770;52.158;5.372;2023-05-10T08:08:48;14.20;99.90
15341;DHT22;7770;52.158;5.372;2023-05-10T08:11:36;14.20;99.90
15341;DHT22;7770;52.158;5.372;2023-05-10T08:14:22;14.20;99.90
15341;DHT22;7770;52.158;5.372;2023-05-10T08:17:08;14.10;99.90
15341;DHT22;7770;52.158;5.372;2023-05-10T08:19:54;14.20;99.90
15341;DHT22;7770;52.158;5.372;2023-05-10T08:22:40;14.20;99.90
15341;DHT22;7770;52.158;5.372;2023-05-10T08:25:26;14.20;99.90
15341;DHT22;7770;52.158;5.372;2023-05-10T08:28:12;14.20;99.90
15341;DHT22;7770;52.158;5.372;2023-05-10T08:30:58;14.30;99.90
15341;DHT22;7770;52.158;5.372;2023-05-10T08:33:44;14.30;99.90
15341;DHT22;7770;52.158;5.372;2023-05-10T08:36:30;14.30;99.90
15341;DHT22;7770;52.158;5.372;2023-05-10T08:39:17;14.30;99.90
15341;DHT22;7770;52.158;5.372;2023-05-10T08:42:04;14.20;99.90
15341;DHT22;7770;52.158;5.372;2023-05-10T08:44:51;14.20;99.90
15341;DHT22;7770;52.158;5.372;2023-05-10T08:47:39;14.20;99.90
15341;DHT22;7770;52.158;5.372;2023-05-10T08:50:25;14.40;99.90
15341;DHT22;7770;52.158;5.372;2023-05-10T08:53:12;14.70;99.90
15341;DHT22;7770;52.158;5.372;2023-05-10T08:56:00;15.10;99.90
15341;DHT22;7770;52.158;5.372;2023-05-10T08:58:47;15.60;99.90
15341;DHT22;7770;52.158;5.372;2023-05-10T09:01:36;15.80;99.90
15341;DHT22;7770;52.158;5.372;2023-05-10T09:04:22;16.00;99.90
15341;DHT22;7770;52.158;5.372;2023-05-10T09:07:08;16.30;99.90
15341;DHT22;7770;52.158;5.372;2023-05-10T09:09:57;16.50;99.90
15341;DHT22;7770;52.158;5.372;2023-05-10T09:12:44;16.70;99.90
15341;DHT22;7770;52.158;5.372;2023-05-10T09:15:31;16.90;99.90
15341;DHT22;7770;52.158;5.372;2023-05-10T09:18:17;17.10;99.90
15341;DHT22;7770;52.158;5.372;2023-05-10T09:21:03;17.40;99.90
15341;DHT22;7770;52.158;5.372;2023-05-10T09:23:49;17.80;99.90
15341;DHT22;7770;52.158;5.372;2023-05-10T09:26:39;18.30;99.90
15341;DHT22;7770;52.158;5.372;2023-05-10T09:29:44;18.30;99.90
15341;DHT22;7770;52.158;5.372;2023-05-10T09:32:41;18.60;99.90
15341;DHT22;7770;52.158;5.372;2023-05-10T09:35:30;18.60;99.90
15341;DHT22;7770;52.158;5.372;2023-05-10T09:38:17;18.80;99.90
15341;DHT22;7770;52.158;5.372;2023-05-10T09:41:03;18.90;99.90
15341;DHT22;7770;52.158;5.372;2023-05-10T09:43:50;18.70;99.90
15341;DHT22;7770;52.158;5.372;2023-05-10T09:46:41;18.50;99.90
15341;DHT22;7770;52.158;5.372;2023-05-10T09:49:27;18.30;99.90
15341;DHT22;7770;52.158;5.372;2023-05-10T09:52:13;17.90;99.90
15341;DHT22;7770;52.158;5.372;2023-05-10T09:54:59;17.70;99.90
15341;DHT22;7770;52.158;5.372;2023-05-10T09:57:46;17.50;99.90
15341;DHT22;7770;52.158;5.372;2023-05-10T10:00:38;17.40;99.90
15341;DHT22;7770;52.158;5.372;2023-05-10T10:03:28;17.40;99.90
15341;DHT22;7770;52.158;5.372;2023-05-10T10:06:19;17.40;99.90
15341;DHT22;7770;52.158;5.372;2023-05-10T10:09:06;17.10;99.90
15341;DHT22;7770;52.158;5.372;2023-05-10T10:11:53;17.00;99.90
15341;DHT22;7770;52.158;5.372;2023-05-10T10:14:40;17.20;99.90
15341;DHT22;7770;52.158;5.372;2023-05-10T10:17:27;17.40;99.90
15341;DHT22;7770;52.158;5.372;2023-05-10T10:20:14;17.40;99.90
15341;DHT22;7770;52.158;5.372;2023-05-10T10:23:01;17.20;99.90
15341;DHT22;7770;52.158;5.372;2023-05-10T10:25:48;17.30;99.90
15341;DHT22;7770;52.158;5.372;2023-05-10T10:29:07;17.30;99.90
15341;DHT22;7770;52.158;5.372;2023-05-10T10:32:07;17.40;99.90
15341;DHT22;7770;52.158;5.372;2023-05-10T10:34:58;17.20;99.90
15341;DHT22;7770;52.158;5.372;2023-05-10T10:37:46;17.10;99.90
15341;DHT22;7770;52.158;5.372;2023-05-10T10:40:33;17.10;99.90
15341;DHT22;7770;52.158;5.372;2023-05-10T10:43:27;17.30;99.90
15341;DHT22;7770;52.158;5.372;2023-05-10T10:46:16;17.20;99.90
15341;DHT22;7770;52.158;5.372;2023-05-10T10:49:10;17.30;99.90
15341;DHT22;7770;52.158;5.372;2023-05-10T10:52:31;17.30;99.90
15341;DHT22;7770;52.158;5.372;2023-05-10T10:55:21;17.50;99.90
15341;DHT22;7770;52.158;5.372;2023-05-10T10:58:09;17.30;99.90
15341;DHT22;7770;52.158;5.372;2023-05-10T11:01:15;17.40;99.90
15341;DHT22;7770;52.158;5.372;2023-05-10T11:06:50;17.40;99.90
15341;DHT22;7770;52.158;5.372;2023-05-10T11:09:39;17.30;99.90
15341;DHT22;7770;52.158;5.372;2023-05-10T11:12:26;16.90;99.90
15341;DHT22;7770;52.158;5.372;2023-05-10T11:15:12;16.70;99.90
15341;DHT22;7770;52.158;5.372;2023-05-10T11:17:58;16.60;99.90
15341;DHT22;7770;52.158;5.372;2023-05-10T11:20:45;16.50;99.90
15341;DHT22;7770;52.158;5.372;2023-05-10T11:26:29;16.80;99.90
15341;DHT22;7770;52.158;5.372;2023-05-10T11:29:16;17.10;99.90
15341;DHT22;7770;52.158;5.372;2023-05-10T11:32:05;17.40;99.90
15341;DHT22;7770;52.158;5.372;2023-05-10T11:34:53;18.20;99.90
15341;DHT22;7770;52.158;5.372;2023-05-10T11:37:41;19.10;99.90
15341;DHT22;7770;52.158;5.372;2023-05-10T11:40:29;19.50;99.90
15341;DHT22;7770;52.158;5.372;2023-05-10T11:43:15;19.80;99.90
15341;DHT22;7770;52.158;5.372;2023-05-10T11:46:01;19.70;99.90
15341;DHT22;7770;52.158;5.372;2023-05-10T11:48:59;19.50;99.90
15341;DHT22;7770;52.158;5.372;2023-05-10T11:51:52;19.40;99.90
15341;DHT22;7770;52.158;5.372;2023-05-10T11:54:45;19.00;99.90
15341;DHT22;7770;52.158;5.372;2023-05-10T11:57:36;18.90;99.90
15341;DHT22;7770;52.158;5.372;2023-05-10T12:00:24;18.60;99.90
15341;DHT22;7770;52.158;5.372;2023-05-10T12:03:10;17.90;99.90
15341;DHT22;7770;52.158;5.372;2023-05-10T12:05:57;17.90;99.90
15341;DHT22;7770;52.158;5.372;2023-05-10T12:08:47;17.80;99.90
15341;DHT22;7770;52.158;5.372;2023-05-10T12:11:39;17.60;99.90
15341;DHT22;7770;52.158;5.372;2023-05-10T12:14:25;17.70;99.90
15341;DHT22;7770;52.158;5.372;2023-05-10T12:17:12;17.80;99.90
15341;DHT22;7770;52.158;5.372;2023-05-10T12:20:12;18.10;99.90
15341;DHT22;7770;52.158;5.372;2023-05-10T12:23:09;18.50;99.90
15341;DHT22;7770;52.158;5.372;2023-05-10T12:26:02;19.00;99.90
15341;DHT22;7770;52.158;5.372;2023-05-10T12:28:53;20.00;99.90
15341;DHT22;7770;52.158;5.372;2023-05-10T12:31:57;20.90;99.90
15341;DHT22;7770;52.158;5.372;2023-05-10T12:34:46;21.30;99.90
15341;DHT22;7770;52.158;5.372;2023-05-10T12:37:33;21.90;99.90
15341;DHT22;7770;52.158;5.372;2023-05-10T12:40:24;22.00;99.90
15341;DHT22;7770;52.158;5.372;2023-05-10T12:43:10;21.70;99.90
15341;DHT22;7770;52.158;5.372;2023-05-10T12:45:56;21.40;99.90
15341;DHT22;7770;52.158;5.372;2023-05-10T12:48:43;21.10;99.90
15341;DHT22;7770;52.158;5.372;2023-05-10T12:51:30;21.10;99.90
15341;DHT22;7770;52.158;5.372;2023-05-10T12:54:17;21.30;99.90
15341;DHT22;7770;52.158;5.372;2023-05-10T12:57:03;21.30;99.90
15341;DHT22;7770;52.158;5.372;2023-05-10T12:59:49;21.10;99.90
15341;DHT22;7770;52.158;5.372;2023-05-10T13:02:35;20.80;99.90
15341;DHT22;7770;52.158;5.372;2023-05-10T13:05:21;20.60;99.90
15341;DHT22;7770;52.158;5.372;2023-05-10T13:08:07;20.20;99.90
15341;DHT22;7770;52.158;5.372;2023-05-10T13:10:53;20.20;99.90
15341;DHT22;7770;52.158;5.372;2023-05-10T13:13:39;19.80;99.90
15341;DHT22;7770;52.158;5.372;2023-05-10T13:16:25;19.20;99.90
15341;DHT22;7770;52.158;5.372;2023-05-10T13:19:11;18.80;99.90
15341;DHT22;7770;52.158;5.372;2023-05-10T13:21:57;18.50;99.90
15341;DHT22;7770;52.158;5.372;2023-05-10T13:24:43;18.10;99.90
15341;DHT22;7770;52.158;5.372;2023-05-10T13:27:29;17.50;99.90
15341;DHT22;7770;52.158;5.372;2023-05-10T13:30:15;17.00;99.90
15341;DHT22;7770;52.158;5.372;2023-05-10T13:33:01;16.90;99.90
15341;DHT22;7770;52.158;5.372;2023-05-10T13:35:47;16.70;99.90
15341;DHT22;7770;52.158;5.372;2023-05-10T13:38:34;16.30;99.90
15341;DHT22;7770;52.158;5.372;2023-05-10T13:41:20;16.30;99.90
15341;DHT22;7770;52.158;5.372;2023-05-10T13:44:06;16.30;99.90
15341;DHT22;7770;52.158;5.372;2023-05-10T13:46:52;16.20;99.90
15341;DHT22;7770;52.158;5.372;2023-05-10T13:49:38;16.00;99.90
15341;DHT22;7770;52.158;5.372;2023-05-10T13:52:25;15.90;99.90
15341;DHT22;7770;52.158;5.372;2023-05-10T13:55:12;15.80;99.90
15341;DHT22;7770;52.158;5.372;2023-05-10T13:57:59;15.70;99.90
15341;DHT22;7770;52.158;5.372;2023-05-10T14:00:44;15.50;99.90
15341;DHT22;7770;52.158;5.372;2023-05-10T14:03:31;15.30;99.90
15341;DHT22;7770;52.158;5.372;2023-05-10T14:06:18;15.30;99.90
15341;DHT22;7770;52.158;5.372;2023-05-10T14:09:04;15.40;99.90
15341;DHT22;7770;52.158;5.372;2023-05-10T14:11:50;15.30;99.90
15341;DHT22;7770;52.158;5.372;2023-05-10T14:14:36;15.20;99.90
15341;DHT22;7770;52.158;5.372;2023-05-10T14:17:22;15.20;99.90
15341;DHT22;7770;52.158;5.372;2023-05-10T14:20:08;15.00;99.90
15341;DHT22;7770;52.158;5.372;2023-05-10T14:22:54;15.00;99.90
15341;DHT22;7770;52.158;5.372;2023-05-10T14:25:41;15.10;99.90
15341;DHT22;7770;52.158;5.372;2023-05-10T14:28:26;15.10;99.90
15341;DHT22;7770;52.158;5.372;2023-05-10T14:31:13;15.10;99.90
15341;DHT22;7770;52.158;5.372;2023-05-10T14:34:00;14.90;99.90
15341;DHT22;7770;52.158;5.372;2023-05-10T14:36:45;14.90;99.90
15341;DHT22;7770;52.158;5.372;2023-05-10T14:39:32;15.00;99.90
15341;DHT22;7770;52.158;5.372;2023-05-10T14:42:18;15.00;99.90
15341;DHT22;7770;52.158;5.372;2023-05-10T14:45:05;15.00;99.90
15341;DHT22;7770;52.158;5.372;2023-05-10T14:47:51;15.10;99.90
15341;DHT22;7770;52.158;5.372;2023-05-10T14:50:37;15.10;99.90
15341;DHT22;7770;52.158;5.372;2023-05-10T14:53:23;15.20;99.90
15341;DHT22;7770;52.158;5.372;2023-05-10T14:56:09;15.20;99.90
15341;DHT22;7770;52.158;5.372;2023-05-10T14:58:55;15.30;99.90
15341;DHT22;7770;52.158;5.372;2023-05-10T15:01:41;15.30;99.90
15341;DHT22;7770;52.158;5.372;2023-05-10T15:04:28;15.40;99.90
15341;DHT22;7770;52.158;5.372;2023-05-10T15:07:14;15.60;99.90
15341;DHT22;7770;52.158;5.372;2023-05-10T15:10:02;15.60;99.90
15341;DHT22;7770;52.158;5.372;2023-05-10T15:12:50;15.50;99.90
15341;DHT22;7770;52.158;5.372;2023-05-10T15:15:36;15.70;99.90
15341;DHT22;7770;52.158;5.372;2023-05-10T15:18:22;16.00;99.90
15341;DHT22;7770;52.158;5.372;2023-05-10T15:21:08;16.20;99.90
15341;DHT22;7770;52.158;5.372;2023-05-10T15:23:54;16.30;99.90
15341;DHT22;7770;52.158;5.372;2023-05-10T15:26:40;16.50;99.90
15341;DHT22;7770;52.158;5.372;2023-05-10T15:29:26;16.70;99.90
15341;DHT22;7770;52.158;5.372;2023-05-10T15:32:12;16.90;99.90
15341;DHT22;7770;52.158;5.372;2023-05-10T15:34:59;17.10;99.90
15341;DHT22;7770;52.158;5.372;2023-05-10T15:37:47;17.10;99.90
15341;DHT22;7770;52.158;5.372;2023-05-10T15:40:33;17.30;99.90
15341;DHT22;7770;52.158;5.372;2023-05-10T15:43:19;17.40;99.90
15341;DHT22;7770;52.158;5.372;2023-05-10T15:46:05;17.40;99.90
15341;DHT22;7770;52.158;5.372;2023-05-10T15:48:51;17.60;99.90
15341;DHT22;7770;52.158;5.372;2023-05-10T15:51:37;17.50;99.90
15341;DHT22;7770;52.158;5.372;2023-05-10T15:54:23;17.40;99.90
15341;DHT22;7770;52.158;5.372;2023-05-10T15:57:09;17.30;99.90
15341;DHT22;7770;52.158;5.372;2023-05-10T15:59:55;17.40;99.90
15341;DHT22;7770;52.158;5.372;2023-05-10T16:02:41;17.40;99.90
15341;DHT22;7770;52.158;5.372;2023-05-10T16:05:27;17.30;99.90
15341;DHT22;7770;52.158;5.372;2023-05-10T16:08:17;17.30;99.90
15341;DHT22;7770;52.158;5.372;2023-05-10T16:11:03;17.20;99.90
15341;DHT22;7770;52.158;5.372;2023-05-10T16:13:49;17.00;99.90
15341;DHT22;7770;52.158;5.372;2023-05-10T16:16:35;17.00;99.90
15341;DHT22;7770;52.158;5.372;2023-05-10T16:19:21;16.90;99.90
15341;DHT22;7770;52.158;5.372;2023-05-10T16:22:07;16.80;99.90
15341;DHT22;7770;52.158;5.372;2023-05-10T16:24:53;16.70;99.90
15341;DHT22;7770;52.158;5.372;2023-05-10T16:27:39;16.80;99.90
15341;DHT22;7770;52.158;5.372;2023-05-10T16:30:26;16.60;99.90
15341;DHT22;7770;52.158;5.372;2023-05-10T16:33:14;16.60;99.90
15341;DHT22;7770;52.158;5.372;2023-05-10T16:36:00;16.60;99.90
15341;DHT22;7770;52.158;5.372;2023-05-10T16:38:46;16.60;99.90
15341;DHT22;7770;52.158;5.372;2023-05-10T16:41:32;16.60;99.90
15341;DHT22;7770;52.158;5.372;2023-05-10T16:44:19;16.70;99.90
15341;DHT22;7770;52.158;5.372;2023-05-10T16:47:05;16.60;99.90
15341;DHT22;7770;52.158;5.372;2023-05-10T16:49:51;16.60;99.90
15341;DHT22;7770;52.158;5.372;2023-05-10T16:52:36;16.70;99.90
15341;DHT22;7770;52.158;5.372;2023-05-10T16:55:23;16.90;99.90
15341;DHT22;7770;52.158;5.372;2023-05-10T16:58:09;16.80;99.90
15341;DHT22;7770;52.158;5.372;2023-05-10T17:00:55;16.80;99.90
15341;DHT22;7770;52.158;5.372;2023-05-10T17:03:41;16.90;99.90
15341;DHT22;7770;52.158;5.372;2023-05-10T17:06:27;17.10;99.90
15341;DHT22;7770;52.158;5.372;2023-05-10T17:09:13;17.20;99.90
15341;DHT22;7770;52.158;5.372;2023-05-10T17:11:59;17.40;99.90
15341;DHT22;7770;52.158;5.372;2023-05-10T17:14:45;17.40;99.90
15341;DHT22;7770;52.158;5.372;2023-05-10T17:17:31;17.40;99.90
15341;DHT22;7770;52.158;5.372;2023-05-10T17:20:17;17.20;99.90
15341;DHT22;7770;52.158;5.372;2023-05-10T17:23:03;17.10;99.90
15341;DHT22;7770;52.158;5.372;2023-05-10T17:25:49;16.90;99.90
15341;DHT22;7770;52.158;5.372;2023-05-10T17:28:35;16.90;99.90
15341;DHT22;7770;52.158;5.372;2023-05-10T17:31:21;16.90;99.90
15341;DHT22;7770;52.158;5.372;2023-05-10T17:34:07;16.60;99.90
15341;DHT22;7770;52.158;5.372;2023-05-10T17:36:53;16.40;99.90
15341;DHT22;7770;52.158;5.372;2023-05-10T17:39:40;16.20;99.90
15341;DHT22;7770;52.158;5.372;2023-05-10T17:42:26;16.20;99.90
15341;DHT22;7770;52.158;5.372;2023-05-10T17:45:12;16.20;99.90
15341;DHT22;7770;52.158;5.372;2023-05-10T17:47:58;16.20;99.90
15341;DHT22;7770;52.158;5.372;2023-05-10T17:50:44;16.10;99.90
15341;DHT22;7770;52.158;5.372;2023-05-10T17:53:30;16.10;99.90
15341;DHT22;7770;52.158;5.372;2023-05-10T17:56:16;16.10;99.90
15341;DHT22;7770;52.158;5.372;2023-05-10T17:59:02;16.10;99.90
15341;DHT22;7770;52.158;5.372;2023-05-10T18:01:50;16.10;99.90
15341;DHT22;7770;52.158;5.372;2023-05-10T18:04:38;16.10;99.90
15341;DHT22;7770;52.158;5.372;2023-05-10T18:07:25;16.10;99.90
15341;DHT22;7770;52.158;5.372;2023-05-10T18:10:11;16.00;99.90
15341;DHT22;7770;52.158;5.372;2023-05-10T18:12:57;15.90;99.90
15341;DHT22;7770;52.158;5.372;2023-05-10T18:15:43;15.80;99.90